sensor_id;sensor_type;location;lat;lon;timestamp;P1;durP1;ratioP1;P2;durP2;ratioP2
31746;SDS011;18319;48.974;8.462;2023-04-07T00:00:42;4.20;;;3.90;;
31746;SDS011;18319;48.974;8.462;2023-04-07T00:03:09;4.37;;;3.47;;
31746;SDS011;18319;48.974;8.462;2023-04-07T00:05:36;6.53;;;3.67;;
31746;SDS011;18319;48.974;8.462;2023-04-07T00:08:03;3.80;;;3.50;;
31746;SDS011;18319;48.974;8.462;2023-04-07T00:10:30;3.50;;;3.30;;
31746;SDS011;18319;48.974;8.462;2023-04-07T00:12:57;3.33;;;3.13;;
31746;SDS011;18319;48.974;8.462;2023-04-07T00:15:24;3.33;;;3.13;;
31746;SDS011;18319;48.974;8.462;2023-04-07T00:17:52;3.60;;;3.37;;
31746;SDS011;18319;48.974;8.462;2023-04-07T00:20:20;3.30;;;3.00;;
31746;SDS011;18319;48.974;8.462;2023-04-07T00:22:47;3.00;;;2.80;;
31746;SDS011;18319;48.974;8.462;2023-04-07T00:25:13;3.60;;;3.30;;
31746;SDS011;18319;48.974;8.462;2023-04-07T00:27:40;3.63;;;3.33;;
31746;SDS011;18319;48.974;8.462;2023-04-07T00:30:07;3.40;;;2.90;;
31746;SDS011;18319;48.974;8.462;2023-04-07T00:32:34;2.70;;;2.50;;
31746;SDS011;18319;48.974;8.462;2023-04-07T00:35:03;2.30;;;2.20;;
31746;SDS011;18319;48.974;8.462;2023-04-07T00:37:30;4.17;;;2.80;;
31746;SDS011;18319;48.974;8.462;2023-04-07T00:39:56;3.00;;;2.80;;
31746;SDS011;18319;48.974;8.462;2023-04-07T00:42:23;4.87;;;2.53;;
31746;SDS011;18319;48.974;8.462;2023-04-07T00:44:50;3.87;;;2.67;;
31746;SDS011;18319;48.974;8.462;2023-04-07T00:47:17;2.77;;;2.57;;
31746;SDS011;18319;48.974;8.462;2023-04-07T00:49:45;3.33;;;3.03;;
31746;SDS011;18319;48.974;8.462;2023-04-07T00:52:13;3.53;;;3.23;;
31746;SDS011;18319;48.974;8.462;2023-04-07T00:54:40;3.67;;;3.37;;
31746;SDS011;18319;48.974;8.462;2023-04-07T00:57:08;4.30;;;3.30;;
31746;SDS011;18319;48.974;8.462;2023-04-07T00:59:34;2.73;;;2.60;;
31746;SDS011;18319;48.974;8.462;2023-04-07T01:02:02;3.23;;;3.03;;
31746;SDS011;18319;48.974;8.462;2023-04-07T01:04:42;3.17;;;2.90;;
31746;SDS011;18319;48.974;8.462;2023-04-07T01:07:17;3.97;;;2.63;;
31746;SDS011;18319;48.974;8.462;2023-04-07T01:12:17;3.23;;;3.03;;
31746;SDS011;18319;48.974;8.462;2023-04-07T01:14:50;3.00;;;2.80;;
31746;SDS011;18319;48.974;8.462;2023-04-07T01:17:24;3.13;;;2.90;;
31746;SDS011;18319;48.974;8.462;2023-04-07T01:19:55;4.20;;;3.30;;
31746;SDS011;18319;48.974;8.462;2023-04-07T01:22:28;3.00;;;2.80;;
31746;SDS011;18319;48.974;8.462;2023-04-07T01:25:17;4.50;;;3.07;;
31746;SDS011;18319;48.974;8.462;2023-04-07T01:27:54;3.30;;;3.00;;
31746;SDS011;18319;48.974;8.462;2023-04-07T01:30:32;2.63;;;2.47;;
31746;SDS011;18319;48.974;8.462;2023-04-07T01:33:02;4.43;;;2.83;;
31746;SDS011;18319;48.974;8.462;2023-04-07T01:35:31;4.67;;;2.63;;
31746;SDS011;18319;48.974;8.462;2023-04-07T01:38:00;4.53;;;2.93;;
31746;SDS011;18319;48.974;8.462;2023-04-07T01:40:28;2.67;;;2.20;;
31746;SDS011;18319;48.974;8.462;2023-04-07T01:42:56;3.67;;;2.77;;
31746;SDS011;18319;48.974;8.462;2023-04-07T01:45:23;3.13;;;2.40;;
31746;SDS011;18319;48.974;8.462;2023-04-07T01:47:53;3.07;;;2.80;;
31746;SDS011;18319;48.974;8.462;2023-04-07T01:50:21;2.60;;;2.40;;
31746;SDS011;18319;48.974;8.462;2023-04-07T01:52:48;2.87;;;2.53;;
31746;SDS011;18319;48.974;8.462;2023-04-07T01:55:15;3.40;;;3.07;;
31746;SDS011;18319;48.974;8.462;2023-04-07T01:57:42;2.53;;;2.33;;
31746;SDS011;18319;48.974;8.462;2023-04-07T02:00:09;2.67;;;2.50;;
31746;SDS011;18319;48.974;8.462;2023-04-07T02:02:39;2.63;;;2.43;;
31746;SDS011;18319;48.974;8.462;2023-04-07T02:05:11;2.97;;;2.67;;
31746;SDS011;18319;48.974;8.462;2023-04-07T02:07:44;2.37;;;2.27;;
31746;SDS011;18319;48.974;8.462;2023-04-07T02:10:16;2.90;;;2.70;;
31746;SDS011;18319;48.974;8.462;2023-04-07T02:12:47;3.23;;;3.00;;
31746;SDS011;18319;48.974;8.462;2023-04-07T02:15:15;2.93;;;2.70;;
31746;SDS011;18319;48.974;8.462;2023-04-07T02:17:45;3.10;;;2.90;;
31746;SDS011;18319;48.974;8.462;2023-04-07T02:20:16;2.40;;;2.30;;
31746;SDS011;18319;48.974;8.462;2023-04-07T02:22:43;2.87;;;2.63;;
31746;SDS011;18319;48.974;8.462;2023-04-07T02:25:20;2.80;;;2.60;;
31746;SDS011;18319;48.974;8.462;2023-04-07T02:27:47;2.60;;;2.43;;
31746;SDS011;18319;48.974;8.462;2023-04-07T02:30:14;2.10;;;2.00;;
31746;SDS011;18319;48.974;8.462;2023-04-07T02:32:41;2.13;;;2.03;;
31746;SDS011;18319;48.974;8.462;2023-04-07T02:35:08;2.20;;;2.00;;
31746;SDS011;18319;48.974;8.462;2023-04-07T02:37:37;2.10;;;2.00;;
31746;SDS011;18319;48.974;8.462;2023-04-07T02:40:04;2.00;;;1.80;;
31746;SDS011;18319;48.974;8.462;2023-04-07T02:42:32;1.57;;;1.47;;
31746;SDS011;18319;48.974;8.462;2023-04-07T02:44:59;3.60;;;1.90;;
31746;SDS011;18319;48.974;8.462;2023-04-07T02:47:25;2.27;;;1.97;;
31746;SDS011;18319;48.974;8.462;2023-04-07T02:49:52;2.23;;;2.10;;
31746;SDS011;18319;48.974;8.462;2023-04-07T02:52:19;3.77;;;1.87;;
31746;SDS011;18319;48.974;8.462;2023-04-07T02:54:47;2.83;;;1.83;;
31746;SDS011;18319;48.974;8.462;2023-04-07T02:57:14;1.93;;;1.83;;
31746;SDS011;18319;48.974;8.462;2023-04-07T02:59:41;1.83;;;1.73;;
31746;SDS011;18319;48.974;8.462;2023-04-07T03:02:07;1.83;;;1.73;;
31746;SDS011;18319;48.974;8.462;2023-04-07T03:04:34;1.70;;;1.57;;
31746;SDS011;18319;48.974;8.462;2023-04-07T03:07:01;2.83;;;2.07;;
31746;SDS011;18319;48.974;8.462;2023-04-07T03:09:28;1.93;;;1.83;;
31746;SDS011;18319;48.974;8.462;2023-04-07T03:11:56;2.00;;;1.80;;
31746;SDS011;18319;48.974;8.462;2023-04-07T03:14:23;1.77;;;1.67;;
31746;SDS011;18319;48.974;8.462;2023-04-07T03:16:49;3.87;;;1.80;;
31746;SDS011;18319;48.974;8.462;2023-04-07T03:19:16;1.80;;;1.53;;
31746;SDS011;18319;48.974;8.462;2023-04-07T03:21:43;1.60;;;1.50;;
31746;SDS011;18319;48.974;8.462;2023-04-07T03:24:10;1.80;;;1.70;;
31746;SDS011;18319;48.974;8.462;2023-04-07T03:26:37;2.40;;;1.60;;
31746;SDS011;18319;48.974;8.462;2023-04-07T03:29:05;1.90;;;1.80;;
31746;SDS011;18319;48.974;8.462;2023-04-07T03:31:32;2.30;;;2.00;;
31746;SDS011;18319;48.974;8.462;2023-04-07T03:33:58;3.40;;;2.10;;
31746;SDS011;18319;48.974;8.462;2023-04-07T03:36:25;2.03;;;1.70;;
31746;SDS011;18319;48.974;8.462;2023-04-07T03:38:53;1.93;;;1.77;;
31746;SDS011;18319;48.974;8.462;2023-04-07T03:41:19;3.33;;;1.50;;
31746;SDS011;18319;48.974;8.462;2023-04-07T03:43:46;2.10;;;2.00;;
31746;SDS011;18319;48.974;8.462;2023-04-07T03:46:14;2.33;;;2.13;;
31746;SDS011;18319;48.974;8.462;2023-04-07T03:48:41;2.27;;;2.13;;
31746;SDS011;18319;48.974;8.462;2023-04-07T03:51:08;2.63;;;2.43;;
31746;SDS011;18319;48.974;8.462;2023-04-07T03:53:35;3.73;;;3.20;;
31746;SDS011;18319;48.974;8.462;2023-04-07T03:56:01;4.47;;;3.47;;
31746;SDS011;18319;48.974;8.462;2023-04-07T03:58:29;3.53;;;2.93;;
31746;SDS011;18319;48.974;8.462;2023-04-07T04:00:55;3.50;;;3.20;;
31746;SDS011;18319;48.974;8.462;2023-04-07T04:03:24;3.60;;;3.30;;
31746;SDS011;18319;48.974;8.462;2023-04-07T04:05:50;3.90;;;3.20;;
31746;SDS011;18319;48.974;8.462;2023-04-07T04:08:17;6.43;;;3.97;;
31746;SDS011;18319;48.974;8.462;2023-04-07T04:10:45;3.53;;;3.23;;
31746;SDS011;18319;48.974;8.462;2023-04-07T04:13:12;4.00;;;3.40;;
31746;SDS011;18319;48.974;8.462;2023-04-07T04:15:38;4.70;;;3.10;;
31746;SDS011;18319;48.974;8.462;2023-04-07T04:18:05;3.50;;;3.20;;
31746;SDS011;18319;48.974;8.462;2023-04-07T04:20:34;3.20;;;3.00;;
31746;SDS011;18319;48.974;8.462;2023-04-07T04:23:01;3.40;;;3.10;;
31746;SDS011;18319;48.974;8.462;2023-04-07T04:25:28;3.27;;;3.00;;
31746;SDS011;18319;48.974;8.462;2023-04-07T04:27:55;3.80;;;3.50;;
31746;SDS011;18319;48.974;8.462;2023-04-07T04:30:21;2.93;;;2.73;;
31746;SDS011;18319;48.974;8.462;2023-04-07T04:32:48;3.43;;;2.70;;
31746;SDS011;18319;48.974;8.462;2023-04-07T04:35:15;3.50;;;3.30;;
31746;SDS011;18319;48.974;8.462;2023-04-07T04:37:43;3.70;;;2.70;;
31746;SDS011;18319;48.974;8.462;2023-04-07T04:40:10;3.10;;;2.90;;
31746;SDS011;18319;48.974;8.462;2023-04-07T04:42:38;2.73;;;2.53;;
31746;SDS011;18319;48.974;8.462;2023-04-07T04:45:05;3.50;;;2.67;;
31746;SDS011;18319;48.974;8.462;2023-04-07T04:47:33;3.57;;;3.27;;
31746;SDS011;18319;48.974;8.462;2023-04-07T04:50:00;3.37;;;2.60;;
31746;SDS011;18319;48.974;8.462;2023-04-07T04:52:27;2.93;;;2.73;;
31746;SDS011;18319;48.974;8.462;2023-04-07T04:54:55;3.10;;;2.80;;
31746;SDS011;18319;48.974;8.462;2023-04-07T04:57:22;3.87;;;2.87;;
31746;SDS011;18319;48.974;8.462;2023-04-07T04:59:48;3.17;;;2.80;;
31746;SDS011;18319;48.974;8.462;2023-04-07T05:02:15;2.30;;;2.13;;
31746;SDS011;18319;48.974;8.462;2023-04-07T05:04:42;2.93;;;2.53;;
31746;SDS011;18319;48.974;8.462;2023-04-07T05:07:09;2.50;;;2.40;;
31746;SDS011;18319;48.974;8.462;2023-04-07T05:09:35;2.03;;;1.90;;
31746;SDS011;18319;48.974;8.462;2023-04-07T05:12:04;4.23;;;3.00;;
31746;SDS011;18319;48.974;8.462;2023-04-07T05:14:31;3.10;;;2.73;;
31746;SDS011;18319;48.974;8.462;2023-04-07T05:16:58;2.47;;;2.13;;
31746;SDS011;18319;48.974;8.462;2023-04-07T05:19:25;2.50;;;2.40;;
31746;SDS011;18319;48.974;8.462;2023-04-07T05:21:53;2.33;;;2.23;;
31746;SDS011;18319;48.974;8.462;2023-04-07T05:24:20;2.20;;;2.10;;
31746;SDS011;18319;48.974;8.462;2023-04-07T05:26:47;2.43;;;2.23;;
31746;SDS011;18319;48.974;8.462;2023-04-07T05:29:15;3.43;;;2.53;;
31746;SDS011;18319;48.974;8.462;2023-04-07T05:31:42;2.70;;;2.30;;
31746;SDS011;18319;48.974;8.462;2023-04-07T05:34:08;2.17;;;2.00;;
31746;SDS011;18319;48.974;8.462;2023-04-07T05:36:35;2.40;;;2.23;;
31746;SDS011;18319;48.974;8.462;2023-04-07T05:39:02;2.63;;;2.30;;
31746;SDS011;18319;48.974;8.462;2023-04-07T05:41:29;2.00;;;1.90;;
31746;SDS011;18319;48.974;8.462;2023-04-07T05:43:56;2.37;;;2.27;;
31746;SDS011;18319;48.974;8.462;2023-04-07T05:46:24;2.90;;;2.70;;
31746;SDS011;18319;48.974;8.462;2023-04-07T05:48:51;2.30;;;2.10;;
31746;SDS011;18319;48.974;8.462;2023-04-07T05:51:17;2.30;;;2.20;;
31746;SDS011;18319;48.974;8.462;2023-04-07T05:53:44;2.13;;;2.00;;
31746;SDS011;18319;48.974;8.462;2023-04-07T05:56:11;2.20;;;2.00;;
31746;SDS011;18319;48.974;8.462;2023-04-07T05:58:38;2.57;;;2.37;;
31746;SDS011;18319;48.974;8.462;2023-04-07T06:01:04;3.20;;;3.00;;
31746;SDS011;18319;48.974;8.462;2023-04-07T06:03:33;3.83;;;3.53;;
31746;SDS011;18319;48.974;8.462;2023-04-07T06:05:59;3.67;;;3.43;;
31746;SDS011;18319;48.974;8.462;2023-04-07T06:08:26;4.97;;;3.50;;
31746;SDS011;18319;48.974;8.462;2023-04-07T06:10:53;3.73;;;3.47;;
31746;SDS011;18319;48.974;8.462;2023-04-07T06:13:20;4.53;;;3.77;;
31746;SDS011;18319;48.974;8.462;2023-04-07T06:15:47;4.70;;;3.97;;
31746;SDS011;18319;48.974;8.462;2023-04-07T06:18:13;4.07;;;3.77;;
31746;SDS011;18319;48.974;8.462;2023-04-07T06:20:42;4.23;;;3.90;;
31746;SDS011;18319;48.974;8.462;2023-04-07T06:23:08;3.60;;;3.07;;
31746;SDS011;18319;48.974;8.462;2023-04-07T06:25:35;3.87;;;3.53;;
31746;SDS011;18319;48.974;8.462;2023-04-07T06:28:02;2.70;;;2.50;;
31746;SDS011;18319;48.974;8.462;2023-04-07T06:30:29;3.03;;;2.83;;
31746;SDS011;18319;48.974;8.462;2023-04-07T06:32:55;4.40;;;3.33;;
31746;SDS011;18319;48.974;8.462;2023-04-07T06:35:23;4.18;;;3.60;;
31746;SDS011;18319;48.974;8.462;2023-04-07T06:37:52;3.25;;;2.95;;
31746;SDS011;18319;48.974;8.462;2023-04-07T06:40:19;3.22;;;2.75;;
31746;SDS011;18319;48.974;8.462;2023-04-07T06:42:45;3.72;;;3.42;;
31746;SDS011;18319;48.974;8.462;2023-04-07T06:45:12;3.33;;;3.00;;
31746;SDS011;18319;48.974;8.462;2023-04-07T06:47:39;3.23;;;3.03;;
31746;SDS011;18319;48.974;8.462;2023-04-07T06:50:06;3.60;;;3.30;;
31746;SDS011;18319;48.974;8.462;2023-04-07T06:52:34;3.22;;;3.08;;
31746;SDS011;18319;48.974;8.462;2023-04-07T06:55:02;5.63;;;3.43;;
31746;SDS011;18319;48.974;8.462;2023-04-07T06:57:29;3.40;;;3.20;;
31746;SDS011;18319;48.974;8.462;2023-04-07T06:59:56;4.47;;;3.53;;
31746;SDS011;18319;48.974;8.462;2023-04-07T07:02:22;4.22;;;3.88;;
31746;SDS011;18319;48.974;8.462;2023-04-07T07:04:49;4.18;;;3.88;;
31746;SDS011;18319;48.974;8.462;2023-04-07T07:07:16;4.53;;;3.85;;
31746;SDS011;18319;48.974;8.462;2023-04-07T07:09:43;3.72;;;3.53;;
31746;SDS011;18319;48.974;8.462;2023-04-07T07:12:11;5.13;;;3.50;;
31746;SDS011;18319;48.974;8.462;2023-04-07T07:14:39;5.18;;;3.83;;
31746;SDS011;18319;48.974;8.462;2023-04-07T07:17:06;5.30;;;3.45;;
31746;SDS011;18319;48.974;8.462;2023-04-07T07:19:32;3.45;;;3.20;;
31746;SDS011;18319;48.974;8.462;2023-04-07T07:21:59;3.63;;;3.03;;
31746;SDS011;18319;48.974;8.462;2023-04-07T07:24:28;4.20;;;3.22;;
31746;SDS011;18319;48.974;8.462;2023-04-07T07:26:57;4.22;;;3.83;;
31746;SDS011;18319;48.974;8.462;2023-04-07T07:29:27;3.88;;;3.47;;
31746;SDS011;18319;48.974;8.462;2023-04-07T07:31:54;4.22;;;3.03;;
31746;SDS011;18319;48.974;8.462;2023-04-07T07:34:21;3.40;;;3.10;;
31746;SDS011;18319;48.974;8.462;2023-04-07T07:36:47;3.22;;;3.03;;
31746;SDS011;18319;48.974;8.462;2023-04-07T07:39:14;3.75;;;3.20;;
31746;SDS011;18319;48.974;8.462;2023-04-07T07:41:41;3.53;;;3.33;;
31746;SDS011;18319;48.974;8.462;2023-04-07T07:44:08;3.60;;;3.35;;
31746;SDS011;18319;48.974;8.462;2023-04-07T07:46:36;3.78;;;3.53;;
31746;SDS011;18319;48.974;8.462;2023-04-07T07:49:03;3.45;;;3.20;;
31746;SDS011;18319;48.974;8.462;2023-04-07T07:51:30;4.20;;;3.28;;
31746;SDS011;18319;48.974;8.462;2023-04-07T07:53:56;2.97;;;2.78;;
31746;SDS011;18319;48.974;8.462;2023-04-07T07:56:23;4.13;;;3.22;;
31746;SDS011;18319;48.974;8.462;2023-04-07T07:58:50;4.18;;;2.90;;
31746;SDS011;18319;48.974;8.462;2023-04-07T08:01:17;3.88;;;2.83;;
31746;SDS011;18319;48.974;8.462;2023-04-07T08:03:45;3.58;;;2.95;;
31746;SDS011;18319;48.974;8.462;2023-04-07T08:06:12;3.03;;;2.80;;
31746;SDS011;18319;48.974;8.462;2023-04-07T08:08:39;3.03;;;2.70;;
31746;SDS011;18319;48.974;8.462;2023-04-07T08:11:05;3.28;;;3.08;;
31746;SDS011;18319;48.974;8.462;2023-04-07T08:13:32;3.35;;;3.08;;
31746;SDS011;18319;48.974;8.462;2023-04-07T08:15:59;3.53;;;3.22;;
31746;SDS011;18319;48.974;8.462;2023-04-07T08:18:26;3.40;;;3.08;;
31746;SDS011;18319;48.974;8.462;2023-04-07T08:20:54;3.55;;;3.25;;
31746;SDS011;18319;48.974;8.462;2023-04-07T08:23:21;4.07;;;2.85;;
31746;SDS011;18319;48.974;8.462;2023-04-07T08:25:48;3.72;;;3.35;;
31746;SDS011;18319;48.974;8.462;2023-04-07T08:28:15;3.03;;;2.83;;
31746;SDS011;18319;48.974;8.462;2023-04-07T08:30:41;3.33;;;3.13;;
31746;SDS011;18319;48.974;8.462;2023-04-07T08:33:08;3.42;;;3.00;;
31746;SDS011;18319;48.974;8.462;2023-04-07T08:35:35;3.22;;;3.00;;
31746;SDS011;18319;48.974;8.462;2023-04-07T08:38:03;4.75;;;2.80;;
31746;SDS011;18319;48.974;8.462;2023-04-07T08:40:31;2.75;;;2.55;;
31746;SDS011;18319;48.974;8.462;2023-04-07T08:42:59;3.08;;;2.80;;
31746;SDS011;18319;48.974;8.462;2023-04-07T08:45:29;4.05;;;3.42;;
31746;SDS011;18319;48.974;8.462;2023-04-07T08:47:57;4.25;;;2.78;;
31746;SDS011;18319;48.974;8.462;2023-04-07T08:50:29;5.00;;;2.53;;
31746;SDS011;18319;48.974;8.462;2023-04-07T08:52:56;2.63;;;2.42;;
31746;SDS011;18319;48.974;8.462;2023-04-07T08:55:28;3.85;;;2.78;;
31746;SDS011;18319;48.974;8.462;2023-04-07T08:57:55;2.67;;;2.47;;
31746;SDS011;18319;48.974;8.462;2023-04-07T09:00:23;2.80;;;2.60;;
31746;SDS011;18319;48.974;8.462;2023-04-07T09:02:50;4.18;;;2.58;;
31746;SDS011;18319;48.974;8.462;2023-04-07T09:05:17;2.85;;;2.65;;
31746;SDS011;18319;48.974;8.462;2023-04-07T09:07:45;3.50;;;2.83;;
31746;SDS011;18319;48.974;8.462;2023-04-07T09:10:12;2.40;;;2.15;;
31746;SDS011;18319;48.974;8.462;2023-04-07T09:12:40;2.65;;;2.50;;
31746;SDS011;18319;48.974;8.462;2023-04-07T09:15:07;2.03;;;1.92;;
31746;SDS011;18319;48.974;8.462;2023-04-07T09:17:34;2.90;;;2.63;;
31746;SDS011;18319;48.974;8.462;2023-04-07T09:20:01;5.97;;;2.67;;
31746;SDS011;18319;48.974;8.462;2023-04-07T09:22:35;3.30;;;3.00;;
31746;SDS011;18319;48.974;8.462;2023-04-07T09:25:10;5.72;;;2.70;;
31746;SDS011;18319;48.974;8.462;2023-04-07T09:27:40;4.25;;;3.95;;
31746;SDS011;18319;48.974;8.462;2023-04-07T09:30:10;3.80;;;3.47;;
31746;SDS011;18319;48.974;8.462;2023-04-07T09:32:38;4.13;;;2.97;;
31746;SDS011;18319;48.974;8.462;2023-04-07T09:35:06;3.60;;;2.90;;
31746;SDS011;18319;48.974;8.462;2023-04-07T09:37:33;3.38;;;2.80;;
31746;SDS011;18319;48.974;8.462;2023-04-07T09:40:00;4.80;;;2.95;;
31746;SDS011;18319;48.974;8.462;2023-04-07T09:42:27;4.60;;;3.85;;
31746;SDS011;18319;48.974;8.462;2023-04-07T09:44:57;3.58;;;3.28;;
31746;SDS011;18319;48.974;8.462;2023-04-07T09:47:25;4.40;;;3.30;;
31746;SDS011;18319;48.974;8.462;2023-04-07T09:49:53;4.15;;;3.63;;
31746;SDS011;18319;48.974;8.462;2023-04-07T09:52:21;4.00;;;3.05;;
31746;SDS011;18319;48.974;8.462;2023-04-07T09:54:51;4.20;;;3.90;;
31746;SDS011;18319;48.974;8.462;2023-04-07T09:57:19;4.30;;;3.70;;
31746;SDS011;18319;48.974;8.462;2023-04-07T09:59:47;3.75;;;3.45;;
31746;SDS011;18319;48.974;8.462;2023-04-07T10:02:16;4.60;;;3.35;;
31746;SDS011;18319;48.974;8.462;2023-04-07T10:04:43;6.30;;;3.45;;
31746;SDS011;18319;48.974;8.462;2023-04-07T10:07:10;5.13;;;3.28;;
31746;SDS011;18319;48.974;8.462;2023-04-07T10:09:37;3.60;;;3.30;;
31746;SDS011;18319;48.974;8.462;2023-04-07T10:12:04;3.40;;;2.75;;
31746;SDS011;18319;48.974;8.462;2023-04-07T10:14:32;2.22;;;2.13;;
31746;SDS011;18319;48.974;8.462;2023-04-07T10:17:01;3.97;;;2.55;;
31746;SDS011;18319;48.974;8.462;2023-04-07T10:19:30;4.03;;;2.55;;
31746;SDS011;18319;48.974;8.462;2023-04-07T10:21:58;6.43;;;2.67;;
31746;SDS011;18319;48.974;8.462;2023-04-07T10:24:30;3.30;;;2.45;;
31746;SDS011;18319;48.974;8.462;2023-04-07T10:27:09;2.28;;;2.17;;
31746;SDS011;18319;48.974;8.462;2023-04-07T10:29:39;2.47;;;2.20;;
31746;SDS011;18319;48.974;8.462;2023-04-07T10:32:07;3.25;;;2.30;;
31746;SDS011;18319;48.974;8.462;2023-04-07T10:34:55;2.97;;;2.22;;
31746;SDS011;18319;48.974;8.462;2023-04-07T10:37:25;3.33;;;2.13;;
31746;SDS011;18319;48.974;8.462;2023-04-07T10:42:52;2.53;;;2.30;;
31746;SDS011;18319;48.974;8.462;2023-04-07T10:45:50;3.47;;;2.72;;
31746;SDS011;18319;48.974;8.462;2023-04-07T10:48:20;4.03;;;2.45;;
31746;SDS011;18319;48.974;8.462;2023-04-07T10:59:40;2.17;;;1.98;;
31746;SDS011;18319;48.974;8.462;2023-04-07T11:02:31;2.08;;;1.67;;
31746;SDS011;18319;48.974;8.462;2023-04-07T11:04:59;2.40;;;2.00;;
31746;SDS011;18319;48.974;8.462;2023-04-07T11:07:43;2.92;;;2.00;;
31746;SDS011;18319;48.974;8.462;2023-04-07T11:10:13;3.35;;;2.28;;
31746;SDS011;18319;48.974;8.462;2023-04-07T11:12:40;2.28;;;1.70;;
31746;SDS011;18319;48.974;8.462;2023-04-07T11:15:17;1.58;;;1.48;;
31746;SDS011;18319;48.974;8.462;2023-04-07T11:17:45;4.25;;;2.00;;
31746;SDS011;18319;48.974;8.462;2023-04-07T11:20:12;4.10;;;2.40;;
31746;SDS011;18319;48.974;8.462;2023-04-07T11:22:39;2.10;;;1.90;;
31746;SDS011;18319;48.974;8.462;2023-04-07T11:25:20;2.65;;;1.33;;
31746;SDS011;18319;48.974;8.462;2023-04-07T11:27:51;4.15;;;2.15;;
31746;SDS011;18319;48.974;8.462;2023-04-07T11:30:18;3.03;;;1.52;;
31746;SDS011;18319;48.974;8.462;2023-04-07T11:32:47;2.75;;;1.70;;
31746;SDS011;18319;48.974;8.462;2023-04-07T11:35:15;1.88;;;1.55;;
31746;SDS011;18319;48.974;8.462;2023-04-07T11:37:42;3.45;;;1.90;;
31746;SDS011;18319;48.974;8.462;2023-04-07T11:40:09;2.00;;;1.80;;
31746;SDS011;18319;48.974;8.462;2023-04-07T11:42:39;3.20;;;2.03;;
31746;SDS011;18319;48.974;8.462;2023-04-07T11:45:14;3.38;;;2.35;;
31746;SDS011;18319;48.974;8.462;2023-04-07T11:47:43;4.85;;;1.73;;
31746;SDS011;18319;48.974;8.462;2023-04-07T11:50:10;5.53;;;1.67;;
31746;SDS011;18319;48.974;8.462;2023-04-07T11:52:40;2.38;;;1.30;;
31746;SDS011;18319;48.974;8.462;2023-04-07T11:55:15;1.35;;;1.23;;
31746;SDS011;18319;48.974;8.462;2023-04-07T11:57:45;3.85;;;1.52;;
31746;SDS011;18319;48.974;8.462;2023-04-07T12:00:13;3.35;;;2.33;;
31746;SDS011;18319;48.974;8.462;2023-04-07T12:02:40;2.95;;;1.70;;
31746;SDS011;18319;48.974;8.462;2023-04-07T12:05:07;1.33;;;1.23;;
31746;SDS011;18319;48.974;8.462;2023-04-07T12:07:35;2.88;;;1.30;;
31746;SDS011;18319;48.974;8.462;2023-04-07T12:10:16;3.70;;;1.30;;
31746;SDS011;18319;48.974;8.462;2023-04-07T12:12:46;2.95;;;1.35;;
31746;SDS011;18319;48.974;8.462;2023-04-07T12:15:13;3.60;;;1.80;;
31746;SDS011;18319;48.974;8.462;2023-04-07T12:17:43;4.13;;;1.33;;
31746;SDS011;18319;48.974;8.462;2023-04-07T12:20:10;5.93;;;1.60;;
31746;SDS011;18319;48.974;8.462;2023-04-07T12:22:37;2.80;;;1.20;;
31746;SDS011;18319;48.974;8.462;2023-04-07T12:25:05;4.85;;;1.90;;
31746;SDS011;18319;48.974;8.462;2023-04-07T12:27:32;3.17;;;1.35;;
31746;SDS011;18319;48.974;8.462;2023-04-07T12:30:01;3.63;;;1.40;;
31746;SDS011;18319;48.974;8.462;2023-04-07T12:32:28;1.90;;;1.10;;
31746;SDS011;18319;48.974;8.462;2023-04-07T12:34:56;1.65;;;1.30;;
31746;SDS011;18319;48.974;8.462;2023-04-07T12:37:23;2.42;;;1.45;;
31746;SDS011;18319;48.974;8.462;2023-04-07T12:39:50;2.05;;;1.17;;
31746;SDS011;18319;48.974;8.462;2023-04-07T12:42:17;2.20;;;1.25;;
31746;SDS011;18319;48.974;8.462;2023-04-07T12:44:43;2.67;;;1.10;;
31746;SDS011;18319;48.974;8.462;2023-04-07T12:47:12;1.77;;;1.20;;
31746;SDS011;18319;48.974;8.462;2023-04-07T12:49:39;2.22;;;1.23;;
31746;SDS011;18319;48.974;8.462;2023-04-07T12:52:05;1.52;;;1.20;;
31746;SDS011;18319;48.974;8.462;2023-04-07T12:54:32;1.83;;;1.40;;
31746;SDS011;18319;48.974;8.462;2023-04-07T12:56:59;1.73;;;1.20;;
31746;SDS011;18319;48.974;8.462;2023-04-07T12:59:26;2.45;;;1.40;;
31746;SDS011;18319;48.974;8.462;2023-04-07T13:01:53;5.05;;;1.30;;
31746;SDS011;18319;48.974;8.462;2023-04-07T13:04:21;2.17;;;1.60;;
31746;SDS011;18319;48.974;8.462;2023-04-07T13:06:50;1.63;;;1.52;;
31746;SDS011;18319;48.974;8.462;2023-04-07T13:09:17;1.27;;;1.10;;
31746;SDS011;18319;48.974;8.462;2023-04-07T13:11:44;2.90;;;1.10;;
31746;SDS011;18319;48.974;8.462;2023-04-07T13:14:11;1.77;;;1.67;;
31746;SDS011;18319;48.974;8.462;2023-04-07T13:19:16;2.53;;;1.02;;
31746;SDS011;18319;48.974;8.462;2023-04-07T13:21:44;1.20;;;0.85;;
31746;SDS011;18319;48.974;8.462;2023-04-07T13:24:11;1.30;;;1.20;;
31746;SDS011;18319;48.974;8.462;2023-04-07T13:26:38;3.28;;;1.10;;
31746;SDS011;18319;48.974;8.462;2023-04-07T13:29:05;2.13;;;0.90;;
31746;SDS011;18319;48.974;8.462;2023-04-07T13:31:31;1.15;;;1.05;;
31746;SDS011;18319;48.974;8.462;2023-04-07T13:33:58;1.77;;;1.30;;
31746;SDS011;18319;48.974;8.462;2023-04-07T13:36:25;0.90;;;0.90;;
31746;SDS011;18319;48.974;8.462;2023-04-07T13:38:53;0.82;;;0.75;;
31746;SDS011;18319;48.974;8.462;2023-04-07T13:41:20;1.63;;;1.50;;
31746;SDS011;18319;48.974;8.462;2023-04-07T13:43:47;1.30;;;1.20;;
31746;SDS011;18319;48.974;8.462;2023-04-07T13:46:14;3.10;;;1.10;;
31746;SDS011;18319;48.974;8.462;2023-04-07T13:48:42;1.27;;;1.10;;
31746;SDS011;18319;48.974;8.462;2023-04-07T13:51:09;2.72;;;1.40;;
31746;SDS011;18319;48.974;8.462;2023-04-07T13:53:36;1.20;;;1.00;;
31746;SDS011;18319;48.974;8.462;2023-04-07T13:56:04;2.60;;;1.63;;
31746;SDS011;18319;48.974;8.462;2023-04-07T13:58:32;3.50;;;2.00;;
31746;SDS011;18319;48.974;8.462;2023-04-07T14:00:59;1.48;;;1.38;;
31746;SDS011;18319;48.974;8.462;2023-04-07T14:03:26;2.65;;;1.73;;
31746;SDS011;18319;48.974;8.462;2023-04-07T14:05:53;2.47;;;1.52;;
31746;SDS011;18319;48.974;8.462;2023-04-07T14:08:24;3.13;;;1.30;;
31746;SDS011;18319;48.974;8.462;2023-04-07T14:10:51;1.30;;;1.20;;
31746;SDS011;18319;48.974;8.462;2023-04-07T14:13:20;1.90;;;1.50;;
31746;SDS011;18319;48.974;8.462;2023-04-07T14:15:47;2.80;;;1.65;;
31746;SDS011;18319;48.974;8.462;2023-04-07T14:18:14;2.97;;;1.50;;
31746;SDS011;18319;48.974;8.462;2023-04-07T14:20:41;1.90;;;1.70;;
31746;SDS011;18319;48.974;8.462;2023-04-07T14:23:08;3.55;;;2.30;;
31746;SDS011;18319;48.974;8.462;2023-04-07T14:25:36;2.75;;;1.80;;
31746;SDS011;18319;48.974;8.462;2023-04-07T14:28:02;4.97;;;1.83;;
31746;SDS011;18319;48.974;8.462;2023-04-07T14:30:31;1.98;;;1.88;;
31746;SDS011;18319;48.974;8.462;2023-04-07T14:33:02;2.33;;;1.48;;
31746;SDS011;18319;48.974;8.462;2023-04-07T14:35:29;1.65;;;1.42;;
31746;SDS011;18319;48.974;8.462;2023-04-07T14:37:56;1.83;;;1.73;;
31746;SDS011;18319;48.974;8.462;2023-04-07T14:40:23;2.47;;;1.63;;
31746;SDS011;18319;48.974;8.462;2023-04-07T14:42:50;4.40;;;1.63;;
31746;SDS011;18319;48.974;8.462;2023-04-07T14:45:16;3.50;;;1.40;;
31746;SDS011;18319;48.974;8.462;2023-04-07T14:47:45;2.60;;;1.35;;
31746;SDS011;18319;48.974;8.462;2023-04-07T14:50:11;2.22;;;1.52;;
31746;SDS011;18319;48.974;8.462;2023-04-07T14:52:38;2.60;;;1.48;;
31746;SDS011;18319;48.974;8.462;2023-04-07T14:55:05;1.77;;;1.30;;
31746;SDS011;18319;48.974;8.462;2023-04-07T14:57:33;1.50;;;1.30;;
31746;SDS011;18319;48.974;8.462;2023-04-07T14:59:59;1.50;;;1.40;;
31746;SDS011;18319;48.974;8.462;2023-04-07T15:02:26;1.42;;;1.33;;
31746;SDS011;18319;48.974;8.462;2023-04-07T15:04:57;1.42;;;1.25;;
31746;SDS011;18319;48.974;8.462;2023-04-07T15:07:24;2.70;;;1.50;;
31746;SDS011;18319;48.974;8.462;2023-04-07T15:09:51;1.23;;;1.13;;